Pleasant Hill, Oregon
Current Conditions -  °F | °C
As of 1:54 AM on Friday 19 Dec 2014 (Local Time) from KEUG Reporting Station
Broken Clouds Broken Clouds  
Wind Chill: 43°   Ceiling: 5000
Heat Index: 46°   Visibility: 10mi
Dew Point: 43°   Wind: 6mph
Humidity: 89%   Direction: 180°S
Pressure: 29.93"   Gusts: NA
Location:  43.97°N, 122.93°W
Report Text: KEUG 190954Z AUTO 18005KT 10SM FEW036 BKN050 BKN120 08/06 A2993 RMK AO2 SLP136 T00780061
Loading
Personal Weather Stations






























Interactive Weather Map New forecast layout! Learn more

10-Day Weather Forecast

Advertisements
Track Severe Weather on mobile